Time;durP1;ratioP1;P1;durP2;ratioP2;P2;SDS_P1;SDS_P2;PMS_P1;PMS_P2;Temp;Humidity;BMP_temperature;BMP_pressure;BME280_temperature;BME280_humidity;BME280_pressure;Samples;Min_cycle;Max_cycle;Signal;HPM_P1;HPM_P2
2020/12/11 00:00:27;;;;;;;97.10;86.47;;;20.30;51.90;;;;;;466605;56;20968;-24
2020/12/11 00:01:00;;;;;;;95.57;84.95;;;20.30;51.80;;;;;;459583;60;21466;-24
2020/12/11 00:01:32;;;;;;;96.60;86.18;;;20.30;51.80;;;;;;464888;56;21118;-24
2020/12/11 00:02:04;;;;;;;97.53;86.95;;;20.30;52.00;;;;;;460678;56;20992;-22
2020/12/11 00:02:35;;;;;;;96.85;86.28;;;20.30;52.10;;;;;;470974;56;20968;-20
2020/12/11 00:03:06;;;;;;;99.80;87.37;;;20.30;52.20;;;;;;459485;60;20960;-24
2020/12/11 00:03:37;;;;;;;96.63;86.12;;;20.30;52.30;;;;;;467231;56;20964;-26
2020/12/11 00:04:08;;;;;;;98.72;87.95;;;20.30;52.40;;;;;;479519;56;21303;-24
2020/12/11 00:04:39;;;;;;;96.35;85.85;;;20.40;52.20;;;;;;463924;56;21028;-22
2020/12/11 00:05:10;;;;;;;97.32;85.12;;;20.30;52.20;;;;;;459638;56;21019;-25
2020/12/11 00:05:41;;;;;;;99.40;88.37;;;20.30;52.30;;;;;;464327;56;20988;-23
2020/12/11 00:06:20;;;;;;;98.37;87.32;;;20.40;52.00;;;;;;459527;60;21044;-26
2020/12/11 00:06:50;;;;;;;98.05;87.30;;;20.30;51.90;;;;;;473508;56;20959;-20
2020/12/11 00:07:21;;;;;;;92.93;82.80;;;20.40;51.90;;;;;;473013;56;21020;-24
2020/12/11 00:07:52;;;;;;;95.45;84.55;;;20.40;52.20;;;;;;467589;56;21438;-25
2020/12/11 00:08:23;;;;;;;93.35;81.75;;;20.40;52.30;;;;;;478544;56;21522;-24
2020/12/11 00:08:54;;;;;;;98.28;87.65;;;20.30;52.30;;;;;;472999;56;20964;-23
2020/12/11 00:09:26;;;;;;;97.10;86.75;;;20.40;52.20;;;;;;461993;56;21443;-25
2020/12/11 00:09:57;;;;;;;95.12;84.62;;;20.40;52.10;;;;;;478049;56;21072;-24
2020/12/11 00:10:28;;;;;;;94.65;84.28;;;20.30;52.30;;;;;;473774;56;21032;-22
2020/12/11 00:10:59;;;;;;;93.95;83.55;;;20.40;52.20;;;;;;476189;56;21075;-25
2020/12/11 00:11:31;;;;;;;97.62;84.35;;;20.30;52.00;;;;;;459819;56;21024;-24
2020/12/11 00:12:02;;;;;;;95.65;85.12;;;20.30;52.00;;;;;;478126;56;21063;-24
2020/12/11 00:12:34;;;;;;;96.12;85.53;;;20.30;51.90;;;;;;477235;56;21333;-24
2020/12/11 00:13:05;;;;;;;96.40;85.85;;;20.40;51.90;;;;;;477280;56;21082;-22
2020/12/11 00:13:35;;;;;;;95.40;85.00;;;20.30;52.10;;;;;;476460;56;20980;-25
2020/12/11 00:14:06;;;;;;;97.43;86.70;;;20.40;52.10;;;;;;459642;60;21541;-25
2020/12/11 00:14:37;;;;;;;92.35;82.30;;;20.30;52.10;;;;;;502044;56;21786;-22
2020/12/11 00:15:09;;;;;;;93.22;83.03;;;20.30;52.10;;;;;;473692;56;21759;-18
2020/12/11 00:15:40;;;;;;;93.70;82.85;;;20.30;52.00;;;;;;473532;56;21079;-22
2020/12/11 00:16:11;;;;;;;93.22;83.00;;;20.30;51.80;;;;;;482438;56;20968;-26
2020/12/11 00:16:41;;;;;;;92.20;82.12;;;20.40;51.90;;;;;;478227;56;20980;-26
2020/12/11 00:17:12;;;;;;;92.88;82.62;;;20.30;52.30;;;;;;460885;56;21434;-23
2020/12/11 00:17:44;;;;;;;95.15;84.75;;;20.30;52.00;;;;;;462881;56;21783;-18
2020/12/11 00:18:14;;;;;;;93.85;83.60;;;20.30;51.90;;;;;;479192;56;21004;-20
2020/12/11 00:18:45;;;;;;;95.85;85.28;;;20.30;52.20;;;;;;464725;56;21043;-25
2020/12/11 00:19:16;;;;;;;94.70;83.12;;;20.40;52.30;;;;;;465772;56;21000;-23
2020/12/11 00:19:47;;;;;;;97.78;85.45;;;20.30;52.10;;;;;;490920;56;20996;-26
2020/12/11 00:20:18;;;;;;;95.47;84.90;;;20.30;52.10;;;;;;468425;56;21075;-21
2020/12/11 00:20:48;;;;;;;94.00;83.15;;;20.30;52.20;;;;;;459598;60;21066;-22
2020/12/11 00:21:20;;;;;;;94.90;83.75;;;20.30;51.80;;;;;;465500;56;20968;-24
2020/12/11 00:21:52;;;;;;;93.68;83.45;;;20.30;51.90;;;;;;503305;56;21075;-23
2020/12/11 00:22:23;;;;;;;95.00;84.57;;;20.30;52.00;;;;;;470582;56;20995;-23
2020/12/11 00:22:54;;;;;;;94.95;83.68;;;20.30;52.10;;;;;;471676;56;20992;-23
2020/12/11 00:23:26;;;;;;;93.35;83.07;;;20.40;52.20;;;;;;472340;56;21039;-17
2020/12/11 00:23:57;;;;;;;91.55;81.47;;;20.30;52.00;;;;;;478843;56;20943;-24
2020/12/11 00:24:28;;;;;;;91.80;81.70;;;20.30;51.90;;;;;;470461;56;21012;-23
2020/12/11 00:24:59;;;;;;;91.97;82.00;;;20.30;52.00;;;;;;459552;60;20980;-24
2020/12/11 00:25:31;;;;;;;93.18;82.90;;;20.30;52.10;;;;;;480152;56;20996;-22
2020/12/11 00:26:02;;;;;;;91.75;81.78;;;20.30;52.10;;;;;;476529;56;20984;-24
2020/12/11 00:26:33;;;;;;;91.10;80.90;;;20.30;52.20;;;;;;479596;56;20996;-23
2020/12/11 00:27:04;;;;;;;93.68;83.28;;;20.30;52.10;;;;;;459521;60;20956;-24
2020/12/11 00:27:35;;;;;;;93.22;82.97;;;20.30;52.00;;;;;;469348;56;21293;-24
2020/12/11 00:28:06;;;;;;;91.90;81.85;;;20.30;52.10;;;;;;480786;56;20960;-22
2020/12/11 00:28:36;;;;;;;93.62;81.90;;;20.30;52.20;;;;;;470084;56;20968;-22
2020/12/11 00:29:07;;;;;;;91.20;81.22;;;20.30;52.00;;;;;;459673;60;21096;-22
2020/12/11 00:29:38;;;;;;;90.45;80.55;;;20.30;52.10;;;;;;459914;57;20992;-21
2020/12/11 00:30:09;;;;;;;90.87;80.82;;;20.30;52.10;;;;;;462774;56;21549;-22
2020/12/11 00:30:40;;;;;;;89.50;79.18;;;20.30;52.00;;;;;;470176;56;20960;-21
2020/12/11 00:31:11;;;;;;;88.97;79.35;;;20.30;52.10;;;;;;463481;56;21006;-26
2020/12/11 00:31:41;;;;;;;91.35;81.18;;;20.30;52.10;;;;;;459697;60;21000;-24
2020/12/11 00:32:12;;;;;;;90.25;80.43;;;20.30;52.50;;;;;;483429;56;21392;-25
2020/12/11 00:32:43;;;;;;;90.53;80.60;;;20.30;52.10;;;;;;459787;57;21068;-25
2020/12/11 00:33:14;;;;;;;93.47;83.37;;;20.30;51.90;;;;;;471172;56;20996;-21
2020/12/11 00:33:45;;;;;;;93.55;82.88;;;20.30;52.00;;;;;;471475;56;21048;-23
2020/12/11 00:34:16;;;;;;;92.43;82.32;;;20.30;52.00;;;;;;461481;56;21529;-26
2020/12/11 00:34:46;;;;;;;91.95;81.90;;;20.30;51.80;;;;;;462640;56;21447;-25
2020/12/11 00:35:17;;;;;;;91.60;81.70;;;20.30;51.60;;;;;;459487;60;21091;-23
2020/12/11 00:35:48;;;;;;;91.32;81.55;;;20.30;51.70;;;;;;475846;56;20987;-24
2020/12/11 00:36:21;;;;;;;92.75;81.90;;;20.30;52.20;;;;;;471840;56;21012;-25
2020/12/11 00:36:51;;;;;;;90.87;81.00;;;20.30;52.20;;;;;;476159;56;21055;-25
2020/12/11 00:37:23;;;;;;;90.60;80.87;;;20.30;52.00;;;;;;477547;56;20984;-24
2020/12/11 00:37:53;;;;;;;94.05;83.75;;;20.30;52.00;;;;;;461889;56;21083;-23
2020/12/11 00:38:29;;;;;;;90.47;80.55;;;20.30;52.00;;;;;;488946;56;20948;-24
2020/12/11 00:39:00;;;;;;;90.25;80.35;;;20.30;51.70;;;;;;497061;56;20963;-24
2020/12/11 00:39:31;;;;;;;93.32;82.97;;;20.30;51.60;;;;;;462665;56;21039;-25
2020/12/11 00:40:04;;;;;;;87.78;78.18;;;20.30;52.20;;;;;;477450;56;21146;-23
2020/12/11 00:40:35;;;;;;;92.53;82.43;;;20.30;51.80;;;;;;473116;56;21016;-25
2020/12/11 00:41:05;;;;;;;90.95;80.95;;;20.30;51.90;;;;;;460537;56;21047;-22
2020/12/11 00:41:39;;;;;;;89.60;79.68;;;20.30;52.10;;;;;;493925;56;20949;-24
2020/12/11 00:42:10;;;;;;;92.57;81.70;;;20.30;52.10;;;;;;473891;56;21290;-24
2020/12/11 00:42:41;;;;;;;90.55;80.65;;;20.30;51.80;;;;;;460061;56;21044;-23
2020/12/11 00:43:11;;;;;;;90.45;80.75;;;20.30;51.70;;;;;;475556;56;21368;-23
2020/12/11 00:43:43;;;;;;;90.65;80.75;;;20.30;51.90;;;;;;477007;56;21016;-21
2020/12/11 00:44:13;;;;;;;90.90;80.97;;;20.30;52.00;;;;;;468522;56;21056;-23
2020/12/11 00:44:44;;;;;;;89.00;79.30;;;20.30;51.80;;;;;;480004;56;20945;-20
2020/12/11 00:45:15;;;;;;;91.75;81.82;;;20.30;51.70;;;;;;476693;56;21712;-21
2020/12/11 00:45:47;;;;;;;88.82;79.12;;;20.30;52.00;;;;;;477456;56;20996;-21
2020/12/11 00:46:24;;;;;;;90.57;80.62;;;20.30;51.90;;;;;;481717;56;21000;-24
2020/12/11 00:46:55;;;;;;;90.00;80.28;;;20.30;51.60;;;;;;467167;56;21067;-22
2020/12/11 00:47:26;;;;;;;87.30;77.65;;;20.30;51.70;;;;;;474001;56;21983;-23
2020/12/11 00:47:57;;;;;;;88.87;79.18;;;20.30;51.90;;;;;;488748;56;22346;-25
2020/12/11 00:48:28;;;;;;;87.88;78.18;;;20.30;51.90;;;;;;477689;56;21427;-26
2020/12/11 00:48:59;;;;;;;86.85;77.20;;;20.30;52.00;;;;;;470069;56;21032;-22
2020/12/11 00:49:30;;;;;;;89.82;79.93;;;20.30;52.10;;;;;;468898;56;21004;-22
2020/12/11 00:50:01;;;;;;;86.87;77.43;;;20.30;52.10;;;;;;493495;56;20988;-22
2020/12/11 00:50:32;;;;;;;84.87;75.60;;;20.30;52.10;;;;;;459650;60;20996;-20
2020/12/11 00:51:03;;;;;;;87.50;77.87;;;20.30;51.70;;;;;;459675;60;20992;-25
2020/12/11 00:51:34;;;;;;;88.97;79.28;;;20.30;51.70;;;;;;489324;56;20960;-25
2020/12/11 00:52:05;;;;;;;88.05;78.40;;;20.30;51.80;;;;;;459653;60;21474;-23
2020/12/11 00:52:37;;;;;;;85.78;76.22;;;20.30;51.80;;;;;;460997;56;21012;-21
2020/12/11 00:53:08;;;;;;;88.62;78.80;;;20.30;52.00;;;;;;461985;56;20968;-25
2020/12/11 00:53:40;;;;;;;89.62;78.87;;;20.30;52.00;;;;;;462738;56;20996;-23
2020/12/11 00:54:11;;;;;;;87.80;78.22;;;20.30;52.00;;;;;;485169;56;21004;-21
2020/12/11 00:54:42;;;;;;;85.60;76.20;;;20.30;52.00;;;;;;459565;60;20972;-25
2020/12/11 00:55:16;;;;;;;87.05;77.55;;;20.30;51.90;;;;;;466229;56;21020;-23
2020/12/11 00:55:47;;;;;;;84.93;75.57;;;20.30;51.90;;;;;;461765;56;21016;-25
2020/12/11 00:56:17;;;;;;;87.10;77.22;;;20.30;51.60;;;;;;505534;56;20948;-21
2020/12/11 00:56:48;;;;;;;88.95;79.25;;;20.30;51.50;;;;;;459591;60;21522;-25
2020/12/11 00:57:19;;;;;;;86.45;76.97;;;20.30;51.50;;;;;;462573;56;21000;-25
2020/12/11 00:57:50;;;;;;;87.50;77.90;;;20.30;51.60;;;;;;490698;56;21522;-22
2020/12/11 00:58:21;;;;;;;88.43;78.68;;;20.30;51.80;;;;;;487074;56;21083;-22
2020/12/11 00:58:52;;;;;;;88.93;79.25;;;20.30;51.90;;;;;;459472;58;21419;-25
2020/12/11 00:59:23;;;;;;;87.65;78.10;;;20.30;52.00;;;;;;468923;56;20999;-24
2020/12/11 00:59:53;;;;;;;88.28;78.68;;;20.30;51.70;;;;;;475895;56;20941;-26
2020/12/11 01:00:24;;;;;;;84.78;75.07;;;20.30;51.80;;;;;;491012;56;21051;-25
2020/12/11 01:00:55;;;;;;;82.65;73.22;;;20.30;51.60;;;;;;465545;56;21040;-24
2020/12/11 01:01:26;;;;;;;88.43;78.72;;;20.30;51.60;;;;;;474700;56;21079;-24
2020/12/11 01:01:57;;;;;;;88.35;78.35;;;20.30;51.50;;;;;;469463;56;21039;-19
2020/12/11 01:02:30;;;;;;;88.90;78.40;;;20.30;51.50;;;;;;476914;56;21420;-21
2020/12/11 01:03:02;;;;;;;85.15;75.32;;;20.30;51.40;;;;;;459586;57;21068;-25
2020/12/11 01:03:33;;;;;;;85.03;75.70;;;20.30;51.70;;;;;;489148;56;20975;-21
2020/12/11 01:04:04;;;;;;;85.18;75.85;;;20.30;51.80;;;;;;459547;60;20984;-20
2020/12/11 01:04:35;;;;;;;85.18;75.75;;;20.30;51.90;;;;;;476215;56;21000;-23
2020/12/11 01:05:06;;;;;;;85.68;76.45;;;20.30;52.00;;;;;;490046;56;21043;-23
2020/12/11 01:05:37;;;;;;;84.90;75.43;;;20.30;52.10;;;;;;478285;56;21489;-24
2020/12/11 01:06:08;;;;;;;84.15;75.05;;;20.30;51.90;;;;;;459670;60;20952;-20
2020/12/11 01:06:42;;;;;;;86.30;76.82;;;20.30;51.60;;;;;;480527;56;20960;-22
2020/12/11 01:07:13;;;;;;;83.55;74.37;;;20.30;51.60;;;;;;462473;56;21586;-23
2020/12/11 01:07:44;;;;;;;86.28;75.40;;;20.30;51.60;;;;;;462692;56;21051;-24
2020/12/11 01:08:14;;;;;;;85.00;75.68;;;20.30;51.80;;;;;;463451;56;21458;-24
2020/12/11 01:08:45;;;;;;;83.05;74.00;;;20.30;51.80;;;;;;459830;57;20936;-22
2020/12/11 01:09:16;;;;;;;83.40;74.40;;;20.30;51.70;;;;;;483640;56;21024;-25
2020/12/11 01:09:47;;;;;;;83.90;74.78;;;20.30;51.70;;;;;;478981;56;21443;-20
2020/12/11 01:10:18;;;;;;;83.22;74.12;;;20.30;51.60;;;;;;461638;56;21088;-24
2020/12/11 01:10:49;;;;;;;83.35;74.20;;;20.30;51.50;;;;;;462487;56;20968;-23
2020/12/11 01:11:20;;;;;;;85.57;76.28;;;20.30;52.10;;;;;;479414;56;21506;-24
2020/12/11 01:11:50;;;;;;;84.80;75.50;;;20.30;51.50;;;;;;465131;56;20992;-22
2020/12/11 01:12:21;;;;;;;85.62;74.70;;;20.30;51.70;;;;;;467395;56;21075;-21
2020/12/11 01:12:52;;;;;;;84.30;75.07;;;20.30;52.00;;;;;;490896;56;21057;-23
2020/12/11 01:13:23;;;;;;;83.80;74.30;;;20.30;51.90;;;;;;460497;56;20964;-23
2020/12/11 01:13:54;;;;;;;83.37;72.45;;;20.30;51.70;;;;;;480420;56;21016;-24
2020/12/11 01:14:24;;;;;;;82.82;73.85;;;20.30;51.90;;;;;;459635;60;20964;-24
2020/12/11 01:14:55;;;;;;;86.22;76.87;;;20.30;51.90;;;;;;459553;60;21059;-22
2020/12/11 01:15:26;;;;;;;85.38;76.07;;;20.30;51.90;;;;;;459637;60;21099;-25
2020/12/11 01:15:57;;;;;;;84.82;75.72;;;20.30;51.80;;;;;;459724;57;22228;-21
2020/12/11 01:16:28;;;;;;;83.15;74.05;;;20.30;51.80;;;;;;476522;56;21040;-21
2020/12/11 01:16:59;;;;;;;81.37;72.43;;;20.30;51.80;;;;;;459531;60;21080;-21
2020/12/11 01:17:30;;;;;;;85.25;75.82;;;20.30;51.90;;;;;;479556;56;21008;-21
2020/12/11 01:18:00;;;;;;;83.18;74.07;;;20.30;51.50;;;;;;471725;56;21019;-25
2020/12/11 01:18:31;;;;;;;82.03;73.20;;;20.30;51.70;;;;;;472910;56;21097;-22
2020/12/11 01:19:02;;;;;;;84.45;75.22;;;20.30;52.00;;;;;;505578;56;20960;-22
2020/12/11 01:19:33;;;;;;;82.05;73.05;;;20.30;51.80;;;;;;459766;60;21091;-21
2020/12/11 01:20:05;;;;;;;83.57;74.37;;;20.30;51.40;;;;;;473295;56;21055;-21
2020/12/11 01:20:36;;;;;;;84.47;74.82;;;20.30;51.40;;;;;;461389;56;20964;-21
2020/12/11 01:21:07;;;;;;;80.28;70.78;;;20.30;51.40;;;;;;486508;56;21039;-21
2020/12/11 01:21:37;;;;;;;82.70;73.70;;;20.30;51.40;;;;;;463802;56;20979;-20
2020/12/11 01:22:09;;;;;;;81.12;72.20;;;20.30;51.50;;;;;;474331;56;21048;-21
2020/12/11 01:22:39;;;;;;;80.43;71.62;;;20.30;51.50;;;;;;479994;56;21028;-22
2020/12/11 01:23:10;;;;;;;81.53;72.53;;;20.30;51.50;;;;;;473555;56;21083;-21
2020/12/11 01:23:41;;;;;;;81.97;73.00;;;20.30;51.40;;;;;;479775;56;21798;-21
2020/12/11 01:24:12;;;;;;;82.93;74.07;;;20.30;51.80;;;;;;469284;56;21011;-23
2020/12/11 01:24:43;;;;;;;80.18;71.43;;;20.30;51.70;;;;;;470839;56;20987;-21
2020/12/11 01:25:14;;;;;;;81.95;73.05;;;20.30;51.50;;;;;;459425;60;20976;-21
2020/12/11 01:25:45;;;;;;;82.43;73.35;;;20.30;51.70;;;;;;476187;56;20968;-21
2020/12/11 01:26:15;;;;;;;80.78;71.95;;;20.30;52.30;;;;;;465181;56;21040;-24
2020/12/11 01:26:47;;;;;;;82.03;72.28;;;20.30;51.80;;;;;;459765;60;21064;-26
2020/12/11 01:27:18;;;;;;;81.40;72.50;;;20.30;51.90;;;;;;505626;56;21107;-21
2020/12/11 01:27:48;;;;;;;82.65;72.68;;;20.30;51.60;;;;;;462482;56;20948;-20
2020/12/11 01:28:19;;;;;;;84.70;74.62;;;20.30;51.80;;;;;;477897;56;20949;-21
2020/12/11 01:28:51;;;;;;;81.72;72.82;;;20.30;52.00;;;;;;468136;56;21426;-21
2020/12/11 01:29:24;;;;;;;82.10;73.05;;;20.30;51.50;;;;;;459763;60;20992;-24
2020/12/11 01:29:55;;;;;;;80.68;71.82;;;20.30;51.50;;;;;;459588;60;21071;-24
2020/12/11 01:30:26;;;;;;;81.90;72.22;;;20.30;51.90;;;;;;475249;56;21003;-26
2020/12/11 01:30:57;;;;;;;79.60;70.82;;;20.30;52.00;;;;;;459834;56;21425;-22
2020/12/11 01:31:27;;;;;;;82.55;73.55;;;20.30;51.90;;;;;;482357;56;20949;-25
2020/12/11 01:31:59;;;;;;;79.00;70.30;;;20.30;51.50;;;;;;478931;56;20960;-25
2020/12/11 01:32:36;;;;;;;79.78;71.07;;;20.30;51.40;;;;;;459497;60;20964;-26
2020/12/11 01:33:06;;;;;;;80.45;71.35;;;20.30;51.60;;;;;;467703;56;21004;-25
2020/12/11 01:33:37;;;;;;;84.07;74.32;;;20.30;52.50;;;;;;467820;56;20996;-25
2020/12/11 01:34:08;;;;;;;79.50;70.85;;;20.30;52.00;;;;;;459632;57;21000;-21
2020/12/11 01:34:39;;;;;;;78.43;70.03;;;20.30;51.90;;;;;;469677;56;21016;-21
2020/12/11 01:35:10;;;;;;;83.25;73.12;;;20.30;51.80;;;;;;494369;56;21065;-24
2020/12/11 01:35:43;;;;;;;78.72;70.12;;;20.30;51.40;;;;;;479380;56;21013;-24
2020/12/11 01:36:14;;;;;;;78.25;69.00;;;20.30;51.70;;;;;;466970;56;20956;-20
2020/12/11 01:36:45;;;;;;;83.90;73.20;;;20.30;51.80;;;;;;491542;56;20996;-24
2020/12/11 01:37:15;;;;;;;81.00;72.10;;;20.30;51.70;;;;;;468333;56;20996;-22
2020/12/11 01:37:46;;;;;;;81.93;73.03;;;20.30;51.50;;;;;;460542;56;21426;-21
2020/12/11 01:38:17;;;;;;;82.00;72.60;;;20.30;51.70;;;;;;462094;56;21004;-21
2020/12/11 01:38:48;;;;;;;81.37;72.57;;;20.30;51.80;;;;;;463157;56;21055;-24
2020/12/11 01:39:19;;;;;;;80.05;71.35;;;20.30;51.50;;;;;;464356;56;21012;-23
2020/12/11 01:39:50;;;;;;;78.80;70.25;;;20.30;51.80;;;;;;466397;56;20968;-26
2020/12/11 01:40:20;;;;;;;79.47;70.87;;;20.30;51.80;;;;;;467118;56;21012;-24
2020/12/11 01:40:51;;;;;;;78.75;70.15;;;20.30;51.80;;;;;;493167;56;21451;-23
2020/12/11 01:41:22;;;;;;;79.00;70.50;;;20.30;51.80;;;;;;461932;56;21063;-23
2020/12/11 01:41:53;;;;;;;82.22;73.35;;;20.30;51.80;;;;;;469000;56;21426;-23
2020/12/11 01:42:24;;;;;;;82.45;73.57;;;20.30;51.80;;;;;;472766;56;21055;-25
2020/12/11 01:42:55;;;;;;;79.00;70.22;;;20.30;51.80;;;;;;469349;56;21534;-24
2020/12/11 01:43:25;;;;;;;78.72;70.30;;;20.30;51.60;;;;;;496750;56;21401;-24
2020/12/11 01:44:09;;;;;;;76.12;67.72;;;20.30;51.50;;;;;;473591;56;21044;-21
2020/12/11 01:44:53;;;;;;;82.82;73.68;;;20.30;51.30;;;;;;479399;56;21095;-24
2020/12/11 01:45:24;;;;;;;81.57;72.43;;;20.30;51.30;;;;;;459659;60;21052;-24
2020/12/11 01:45:55;;;;;;;79.90;71.28;;;20.30;51.60;;;;;;488026;56;20996;-22
2020/12/11 01:46:37;;;;;;;80.90;72.05;;;20.30;51.80;;;;;;459534;60;20972;-23
2020/12/11 01:47:08;;;;;;;78.87;70.03;;;20.30;51.60;;;;;;474541;56;21031;-22
2020/12/11 01:47:39;;;;;;;78.18;69.65;;;20.30;51.50;;;;;;460754;56;21106;-24
2020/12/11 01:48:11;;;;;;;77.75;69.25;;;20.30;51.80;;;;;;459618;60;21040;-25
2020/12/11 01:48:42;;;;;;;77.18;68.68;;;20.30;51.70;;;;;;459865;56;21076;-23
2020/12/11 01:49:13;;;;;;;77.62;68.62;;;20.30;51.50;;;;;;459664;60;21490;-25
2020/12/11 01:49:47;;;;;;;81.63;72.57;;;20.30;51.60;;;;;;479210;56;21493;-21
2020/12/11 01:50:21;;;;;;;81.72;72.72;;;20.30;51.60;;;;;;462100;56;21151;-26
2020/12/11 01:50:52;;;;;;;77.70;68.82;;;20.30;51.70;;;;;;495548;56;21046;-22
2020/12/11 01:51:22;;;;;;;75.47;65.60;;;20.30;51.50;;;;;;474320;56;21075;-24
2020/12/11 01:51:54;;;;;;;78.62;70.03;;;20.30;51.30;;;;;;483368;56;21025;-26
2020/12/11 01:52:25;;;;;;;77.00;68.62;;;20.30;51.20;;;;;;482610;56;20992;-21
2020/12/11 01:52:56;;;;;;;78.12;69.62;;;20.30;51.20;;;;;;461511;56;21090;-25
2020/12/11 01:53:30;;;;;;;78.32;69.87;;;20.30;51.20;;;;;;473673;56;20972;-23
2020/12/11 01:54:02;;;;;;;77.05;68.65;;;20.30;51.50;;;;;;478307;56;21068;-25
2020/12/11 01:54:33;;;;;;;76.00;67.68;;;20.30;51.60;;;;;;459653;57;20988;-23
2020/12/11 01:55:04;;;;;;;79.30;70.53;;;20.30;51.70;;;;;;466468;56;21006;-25
2020/12/11 01:55:35;;;;;;;76.85;68.40;;;20.30;51.70;;;;;;466881;56;22345;-25
2020/12/11 01:56:06;;;;;;;76.35;67.95;;;20.30;51.40;;;;;;500326;56;21043;-23
2020/12/11 01:56:45;;;;;;;74.78;65.80;;;20.30;51.30;;;;;;478205;56;20989;-25
2020/12/11 01:57:45;;;;;;;76.47;67.57;;;20.30;51.20;;;;;;490825;56;20992;-25
2020/12/11 01:58:20;;;;;;;80.35;68.75;;;20.30;51.30;;;;;;469587;56;21008;-22
2020/12/11 01:58:57;;;;;;;76.15;67.80;;;20.30;51.50;;;;;;488182;56;21389;-22
2020/12/11 02:00:05;;;;;;;75.75;66.72;;;20.30;51.40;;;;;;482180;56;21020;-25
2020/12/11 02:00:40;;;;;;;75.57;67.35;;;20.30;51.30;;;;;;474834;56;20991;-23
2020/12/11 02:01:16;;;;;;;76.47;68.10;;;20.30;51.20;;;;;;474971;56;21040;-25
2020/12/11 02:01:49;;;;;;;80.25;71.45;;;20.30;51.20;;;;;;480498;56;20972;-20
2020/12/11 02:02:21;;;;;;;80.15;71.12;;;20.30;51.40;;;;;;477448;56;20940;-22
2020/12/11 02:03:06;;;;;;;79.18;70.00;;;20.30;51.20;;;;;;461422;56;20960;-27
2020/12/11 02:03:39;;;;;;;74.95;66.75;;;20.30;51.40;;;;;;465190;56;21047;-25
2020/12/11 02:04:10;;;;;;;74.43;66.30;;;20.30;51.50;;;;;;460505;56;21000;-23
2020/12/11 02:04:41;;;;;;;73.75;64.62;;;20.30;51.30;;;;;;459493;60;21494;-25
2020/12/11 02:05:12;;;;;;;74.78;66.40;;;20.30;51.40;;;;;;481528;56;21012;-25
2020/12/11 02:05:42;;;;;;;76.22;68.03;;;20.30;51.40;;;;;;460378;56;20956;-24
2020/12/11 02:06:13;;;;;;;75.75;67.55;;;20.30;51.30;;;;;;467615;56;21004;-23
2020/12/11 02:06:44;;;;;;;74.97;66.70;;;20.30;51.60;;;;;;469047;56;21040;-22
2020/12/11 02:07:15;;;;;;;76.00;67.68;;;20.30;51.70;;;;;;460785;56;21072;-24
2020/12/11 02:07:47;;;;;;;71.85;63.30;;;20.30;51.60;;;;;;459629;60;20956;-23
2020/12/11 02:08:18;;;;;;;71.68;63.87;;;20.30;51.20;;;;;;471316;56;21020;-25
2020/12/11 02:08:54;;;;;;;73.32;65.25;;;20.30;51.10;;;;;;459558;60;21031;-21
2020/12/11 02:09:26;;;;;;;73.22;65.15;;;20.30;51.20;;;;;;466327;56;21081;-25
2020/12/11 02:09:57;;;;;;;73.93;65.97;;;20.30;51.20;;;;;;466194;56;21031;-23
2020/12/11 02:10:31;;;;;;;76.53;68.25;;;20.30;51.10;;;;;;474427;56;21114;-24
2020/12/11 02:11:02;;;;;;;74.50;66.35;;;20.30;51.30;;;;;;469660;56;20952;-27
2020/12/11 02:11:33;;;;;;;73.50;65.55;;;20.30;51.50;;;;;;470080;56;21028;-23
2020/12/11 02:12:04;;;;;;;72.72;64.68;;;20.30;51.50;;;;;;465361;56;20967;-25
2020/12/11 02:12:35;;;;;;;73.12;65.12;;;20.30;51.20;;;;;;478464;56;21048;-25
2020/12/11 02:13:07;;;;;;;72.75;64.75;;;20.30;51.30;;;;;;493719;56;20984;-25
2020/12/11 02:13:41;;;;;;;71.35;63.45;;;20.30;51.10;;;;;;459798;58;20964;-26
2020/12/11 02:14:13;;;;;;;74.20;66.00;;;20.30;51.10;;;;;;486704;56;21027;-26
2020/12/11 02:14:47;;;;;;;74.43;65.93;;;20.30;51.10;;;;;;461480;56;21463;-22
2020/12/11 02:15:19;;;;;;;73.50;64.65;;;20.30;51.10;;;;;;469144;56;20980;-24
2020/12/11 02:15:50;;;;;;;74.47;65.00;;;20.30;51.10;;;;;;476760;56;20991;-24
2020/12/11 02:16:22;;;;;;;71.57;63.70;;;20.30;51.10;;;;;;479553;56;21055;-23
2020/12/11 02:17:03;;;;;;;73.30;64.95;;;20.30;51.10;;;;;;467234;56;20964;-25
2020/12/11 02:17:36;;;;;;;74.75;66.40;;;20.30;51.10;;;;;;460398;56;21000;-23
2020/12/11 02:18:07;;;;;;;73.55;64.70;;;20.30;51.20;;;;;;481110;56;20988;-22
2020/12/11 02:18:40;;;;;;;73.03;64.72;;;20.30;51.30;;;;;;459768;57;21445;-23
2020/12/11 02:19:12;;;;;;;72.28;64.47;;;20.30;51.30;;;;;;459694;60;20952;-25
2020/12/11 02:19:43;;;;;;;73.45;63.92;;;20.30;51.40;;;;;;489725;56;20928;-25
2020/12/11 02:20:14;;;;;;;76.62;67.68;;;20.30;51.40;;;;;;467262;56;21096;-24
2020/12/11 02:20:45;;;;;;;72.87;64.32;;;20.30;51.50;;;;;;477555;56;21438;-24
2020/12/11 02:21:17;;;;;;;73.80;65.50;;;20.30;51.20;;;;;;459560;60;20991;-25
2020/12/11 02:21:50;;;;;;;73.20;64.90;;;20.30;51.40;;;;;;476134;56;20992;-24
2020/12/11 02:22:22;;;;;;;72.15;64.28;;;20.30;51.10;;;;;;466506;56;20996;-26
2020/12/11 02:22:52;;;;;;;71.70;63.67;;;20.20;51.50;;;;;;459648;60;21024;-26
2020/12/11 02:23:23;;;;;;;73.57;65.47;;;20.30;51.40;;;;;;468987;56;21025;-25
2020/12/11 02:23:54;;;;;;;73.53;65.40;;;20.30;51.60;;;;;;472250;56;21028;-23
2020/12/11 02:24:25;;;;;;;71.40;63.50;;;20.30;51.50;;;;;;472678;56;21111;-26
2020/12/11 02:24:56;;;;;;;71.85;64.05;;;20.30;51.40;;;;;;475522;56;21048;-23
2020/12/11 02:25:27;;;;;;;70.82;63.13;;;20.30;51.40;;;;;;495455;56;21096;-23
2020/12/11 02:25:58;;;;;;;73.32;65.15;;;20.30;51.20;;;;;;472813;56;20995;-30
2020/12/11 02:26:28;;;;;;;73.35;64.57;;;20.30;51.40;;;;;;476103;56;20997;-24
2020/12/11 02:27:01;;;;;;;72.10;63.65;;;20.30;51.60;;;;;;472927;56;20952;-25
2020/12/11 02:27:32;;;;;;;71.87;64.05;;;20.30;51.40;;;;;;492751;56;21019;-25
2020/12/11 02:28:02;;;;;;;71.15;63.47;;;20.30;51.30;;;;;;478157;56;21091;-21
2020/12/11 02:28:34;;;;;;;73.45;65.35;;;20.30;51.30;;;;;;459629;57;21004;-22
2020/12/11 02:29:05;;;;;;;73.07;64.18;;;20.30;51.40;;;;;;459559;58;20980;-19
2020/12/11 02:29:36;;;;;;;70.68;62.90;;;20.30;51.40;;;;;;475342;56;21043;-22
2020/12/11 02:30:07;;;;;;;70.57;62.88;;;20.30;51.30;;;;;;476315;56;21076;-20
2020/12/11 02:30:38;;;;;;;71.50;63.17;;;20.30;51.40;;;;;;476416;56;21443;-24
2020/12/11 02:31:09;;;;;;;69.12;61.60;;;20.30;52.00;;;;;;476362;56;21052;-25
2020/12/11 02:31:40;;;;;;;71.15;63.42;;;20.30;51.20;;;;;;484174;56;21553;-27
2020/12/11 02:32:14;;;;;;;71.45;63.65;;;20.30;51.40;;;;;;462013;56;21049;-24
2020/12/11 02:32:45;;;;;;;73.10;65.00;;;20.30;51.20;;;;;;472800;56;21013;-19
2020/12/11 02:33:16;;;;;;;70.15;62.38;;;20.30;51.20;;;;;;472736;56;20964;-24
2020/12/11 02:33:46;;;;;;;71.75;63.95;;;20.30;51.20;;;;;;460662;56;21116;-26
2020/12/11 02:34:18;;;;;;;73.35;65.37;;;20.30;51.40;;;;;;466374;56;21044;-26
2020/12/11 02:34:49;;;;;;;72.55;64.68;;;20.30;51.30;;;;;;459525;60;21031;-25
2020/12/11 02:35:20;;;;;;;71.03;63.22;;;20.30;51.40;;;;;;459526;60;21083;-24
2020/12/11 02:35:50;;;;;;;72.12;63.97;;;20.30;51.40;;;;;;488494;56;21100;-24
2020/12/11 02:36:21;;;;;;;71.32;63.53;;;20.30;52.00;;;;;;465398;56;21377;-26
2020/12/11 02:36:52;;;;;;;69.87;62.28;;;20.30;51.30;;;;;;475476;56;21305;-21
2020/12/11 02:37:23;;;;;;;70.20;62.55;;;20.30;51.20;;;;;;468041;56;20952;-25
2020/12/11 02:37:54;;;;;;;73.43;65.12;;;20.30;51.30;;;;;;469349;56;21012;-24
2020/12/11 02:38:25;;;;;;;69.97;62.17;;;20.30;51.40;;;;;;470883;56;20987;-25
2020/12/11 02:38:58;;;;;;;70.43;62.72;;;20.30;51.80;;;;;;467043;56;21004;-25
2020/12/11 02:39:28;;;;;;;67.68;60.22;;;20.30;51.40;;;;;;470492;56;21116;-26
2020/12/11 02:39:59;;;;;;;70.35;62.75;;;20.30;51.40;;;;;;488290;56;21071;-25
2020/12/11 02:40:30;;;;;;;72.85;64.85;;;20.30;51.40;;;;;;459453;57;20984;-24
2020/12/11 02:41:02;;;;;;;68.95;60.40;;;20.30;51.40;;;;;;474475;56;20992;-25
2020/12/11 02:41:33;;;;;;;70.80;61.75;;;20.30;51.20;;;;;;498481;56;21046;-24
2020/12/11 02:42:05;;;;;;;69.97;62.33;;;20.30;51.10;;;;;;469774;56;21019;-26
2020/12/11 02:42:36;;;;;;;71.10;62.33;;;20.30;51.10;;;;;;459469;60;21027;-25
2020/12/11 02:43:07;;;;;;;69.72;62.10;;;20.30;51.00;;;;;;474177;56;21000;-26